Time;durP1;ratioP1;P1;durP2;ratioP2;P2;SDS_P1;SDS_P2;PMS_P1;PMS_P2;Temp;Humidity;BMP_temperature;BMP_pressure;BME280_temperature;BME280_humidity;BME280_pressure;Samples;Min_cycle;Max_cycle;Signal;HPM_P1;HPM_P2
2022/04/17 03:05:44;;;;;;;6.70;2.97;;;;;;;5.05;47.42;99049.09;10191299;29;19907;-80
2022/04/17 03:10:46;;;;;;;6.55;3.00;;;;;;;4.99;47.40;99040.13;10173152;29;20035;-81
2022/04/17 03:16:09;;;;;;;5.78;3.40;;;;;;;4.98;47.54;99043.41;10140981;29;20052;-83
2022/04/17 03:21:31;;;;;;;9.55;3.85;;;;;;;4.96;47.82;99035.66;10179578;29;20036;-82
2022/04/17 03:26:53;;;;;;;5.90;2.88;;;;;;;4.94;48.07;99052.03;10152781;29;20032;-80
2022/04/17 03:32:15;;;;;;;5.97;2.95;;;;;;;4.97;48.37;99050.22;10165959;29;20056;-81
2022/04/17 03:37:37;;;;;;;5.93;3.13;;;;;;;4.92;48.24;99045.50;10152735;29;20085;-80
2022/04/17 03:42:59;;;;;;;7.85;3.63;;;;;;;4.88;48.21;99045.81;10165562;29;20096;-80
2022/04/17 03:48:20;;;;;;;5.80;3.20;;;;;;;4.89;48.41;99052.84;10152481;29;20048;-82
2022/04/17 03:53:42;;;;;;;7.05;3.20;;;;;;;4.89;48.45;99048.06;10152474;29;20203;-82
2022/04/17 03:59:04;;;;;;;6.05;3.25;;;;;;;4.86;48.18;99048.38;10151942;29;20024;-83
2022/04/17 04:04:26;;;;;;;9.43;3.42;;;;;;;4.89;48.54;99050.81;10163684;29;20111;-80
2022/04/17 04:09:47;;;;;;;6.70;3.63;;;;;;;4.96;48.77;99048.75;10151825;29;20032;-81
2022/04/17 04:15:10;;;;;;;5.60;3.35;;;;;;;5.06;48.60;99045.06;10161637;29;20100;-81
2022/04/17 04:20:31;;;;;;;5.30;2.80;;;;;;;5.14;48.90;99037.63;10164351;29;20064;-82
2022/04/17 04:25:53;;;;;;;7.50;3.08;;;;;;;5.20;48.52;99054.16;10161212;29;20036;-81
2022/04/17 04:31:15;;;;;;;6.95;3.08;;;;;;;5.33;48.46;99059.75;10176673;29;20092;-80
2022/04/17 05:26:46;;;;;;;8.30;3.17;;;;;;;10.10;48.34;99048.47;11667091;23;20048;-82
2022/04/17 05:38:23;;;;;;;5.63;3.05;;;;;;;20.62;36.84;99053.28;10531867;23;20056;-85
2022/04/17 05:43:44;;;;;;;4.38;2.70;;;;;;;22.17;33.44;99059.00;10148319;29;20059;-86
2022/04/17 05:49:06;;;;;;;5.00;2.78;;;;;;;25.78;32.28;99064.00;10148031;29;20052;-85
2022/04/17 05:54:27;;;;;;;4.93;3.10;;;;;;;30.52;26.91;99063.53;10161144;29;20103;-83
2022/04/17 05:59:48;;;;;;;4.03;2.55;;;;;;;31.81;22.01;99068.00;10147782;29;20163;-83
2022/04/17 06:05:09;;;;;;;5.07;2.40;;;;;;;31.92;20.86;99078.13;10160702;29;20048;-83
2022/04/17 06:10:31;;;;;;;4.50;2.60;;;;;;;33.81;18.72;99068.66;10160836;29;20044;-83
2022/04/17 06:15:51;;;;;;;;;;;;;;;33.53;14.32;99070.22;10160921;29;20483;-82
2022/04/17 06:21:13;;;;;;;4.43;2.17;;;;;;;32.78;16.02;99075.38;10147421;29;19951;-83
2022/04/17 06:26:33;;;;;;;3.70;2.23;;;;;;;31.59;14.87;99072.22;10165398;29;20095;-83
2022/04/17 06:31:55;;;;;;;6.05;2.47;;;;;;;30.58;14.95;99063.56;10168448;29;20079;-83
2022/04/17 06:37:16;;;;;;;4.55;2.63;;;;;;;30.76;14.37;99060.16;10168497;29;20064;-83
2022/04/17 06:42:38;;;;;;;4.60;2.78;;;;;;;31.96;13.87;99055.06;10167835;29;20104;-86
2022/04/17 06:48:19;;;;;;;4.47;2.47;;;;;;;32.59;12.03;99052.25;10154993;29;20054;-86
2022/04/17 06:53:40;;;;;;;5.53;3.10;;;;;;;33.03;12.18;99050.81;10168206;29;20052;-86
2022/04/17 06:59:09;;;;;;;3.85;2.70;;;;;;;32.46;11.60;99050.81;10155917;29;20063;-86
2022/04/17 07:04:31;;;;;;;5.22;2.78;;;;;;;31.93;11.30;99049.97;10154145;29;20375;-85
2022/04/17 07:09:52;;;;;;;5.65;2.65;;;;;;;31.57;12.13;99057.78;10166836;29;20048;-85
2022/04/17 07:15:13;;;;;;;5.30;2.83;;;;;;;31.91;11.73;99050.69;10153519;29;20331;-86
2022/04/17 07:20:35;;;;;;;5.18;2.90;;;;;;;32.09;11.13;99050.75;10166301;29;20048;-84
2022/04/17 07:25:57;;;;;;;5.50;2.78;;;;;;;31.95;11.09;99044.97;10153412;29;20474;-86
2022/04/17 07:31:18;;;;;;;4.38;3.10;;;;;;;32.33;10.58;99034.91;10153025;29;20044;-86
2022/04/17 07:36:39;;;;;;;3.60;2.60;;;;;;;33.20;10.82;99034.88;10164461;29;20068;-85
2022/04/17 07:42:00;;;;;;;4.88;2.67;;;;;;;33.43;10.26;99037.72;10152558;29;20052;-85
2022/04/17 07:47:22;;;;;;;4.40;2.67;;;;;;;32.85;10.44;99034.22;10152017;29;20080;-85
2022/04/17 07:52:43;;;;;;;5.30;3.05;;;;;;;30.90;11.04;99034.31;10165263;29;20044;-85
2022/04/17 07:58:15;;;;;;;3.70;2.47;;;;;;;29.42;11.42;99030.63;10151852;29;20055;-85
2022/04/17 08:09:01;;;;;;;6.68;2.65;;;;;;;28.60;13.12;99020.13;10151605;29;20044;-85
2022/04/17 08:14:22;;;;;;;4.32;2.47;;;;;;;31.24;11.86;99024.44;10151199;29;20052;-86
2022/04/17 08:19:42;;;;;;;;;;;;;;;34.53;10.33;99013.91;10151340;29;20506;-85
2022/04/17 08:25:04;;;;;;;3.78;2.10;;;;;;;37.51;9.07;99025.63;10163789;29;19970;-86
2022/04/17 08:30:26;;;;;;;8.60;2.40;;;;;;;38.02;7.54;99022.34;10150884;29;20055;-86
2022/04/17 08:35:48;;;;;;;4.82;1.85;;;;;;;36.04;7.90;99013.66;10150209;29;20056;-86
2022/04/17 08:41:10;;;;;;;3.00;1.90;;;;;;;35.84;8.50;99016.81;10137083;29;20040;-86
2022/04/17 08:46:31;;;;;;;6.78;1.90;;;;;;;35.46;8.45;99010.06;10149609;29;20064;-86
2022/04/17 08:51:53;;;;;;;4.15;2.08;;;;;;;35.11;8.75;99006.09;10162693;29;20044;-86
2022/04/17 08:57:13;;;;;;;4.10;2.08;;;;;;;35.43;8.19;99013.75;10149695;29;20066;-85
2022/04/17 09:02:35;;;;;;;3.78;1.33;;;;;;;34.79;8.36;98999.16;10162278;29;20048;-86
2022/04/17 09:07:56;;;;;;;3.92;1.23;;;;;;;32.26;9.16;98998.78;10149025;29;20055;-85
2022/04/17 09:13:28;;;;;;;2.58;1.15;;;;;;;30.70;9.63;99003.22;10162150;29;20403;-85
2022/04/17 09:18:49;;;;;;;4.80;1.15;;;;;;;33.10;9.21;98991.50;10148735;29;20051;-86
2022/04/17 09:24:14;;;;;;;2.05;0.90;;;;;;;34.65;8.47;98990.63;10148556;29;20044;-86
2022/04/17 09:29:38;;;;;;;1.88;0.68;;;;;;;33.12;7.55;98988.63;10161244;29;20048;-85
2022/04/17 09:35:00;;;;;;;1.83;1.17;;;;;;;30.39;8.23;98978.44;10161603;29;20139;-85
2022/04/17 09:40:23;;;;;;;3.45;1.20;;;;;;;27.56;10.60;98974.47;10148786;29;20052;-85
2022/04/17 09:46:04;;;;;;;3.10;1.40;;;;;;;24.98;11.52;98972.31;10148085;29;20048;-83
2022/04/17 09:51:26;;;;;;;2.67;1.43;;;;;;;23.06;12.63;98958.69;10148458;29;20044;-84
2022/04/17 09:56:49;;;;;;;4.30;1.90;;;;;;;23.04;14.01;98956.50;10160639;29;20510;-83
2022/04/17 10:02:12;;;;;;;2.78;1.40;;;;;;;24.11;14.27;98961.69;10160009;29;20048;-84
2022/04/17 10:07:33;;;;;;;3.13;1.80;;;;;;;25.36;14.23;98955.59;10147442;29;20047;-84
2022/04/17 10:12:54;;;;;;;3.33;2.07;;;;;;;28.42;12.64;98950.91;10160426;29;20040;-85
2022/04/17 10:18:15;;;;;;;;;;;;;;;31.86;10.59;98937.41;10147715;29;20129;-87
2022/04/17 10:23:42;;;;;;;4.00;1.67;;;;;;;37.02;9.16;98945.13;10160175;29;19923;-86
2022/04/17 10:29:05;;;;;;;2.47;1.40;;;;;;;39.97;6.47;98939.72;10160947;29;20047;-87
2022/04/17 10:34:55;;;;;;;2.85;1.10;;;;;;;41.92;5.43;98929.72;10146762;29;20063;-87
2022/04/17 10:40:19;;;;;;;2.05;0.77;;;;;;;43.61;4.31;98912.75;10154666;29;20147;-86
2022/04/17 10:46:19;;;;;;;1.85;1.10;;;;;;;43.01;3.59;98896.47;10146801;29;20051;-86
2022/04/17 10:51:53;;;;;;;2.58;1.55;;;;;;;41.87;4.07;98899.16;9940051;29;20046;-88
2022/04/17 10:57:22;;;;;;;3.55;1.75;;;;;;;41.11;4.27;98907.22;10162724;29;20549;-86
2022/04/17 11:02:42;;;;;;;3.60;1.65;;;;;;;39.39;3.61;98891.13;10146578;29;20040;-85
2022/04/17 11:08:21;;;;;;;2.70;1.80;;;;;;;32.78;7.36;98882.44;10146303;29;20479;-85
2022/04/17 11:14:08;;;;;;;5.95;2.17;;;;;;;28.74;8.77;98873.09;10152650;29;20052;-85
2022/04/17 11:19:31;;;;;;;3.92;2.30;;;;;;;25.83;10.60;98864.66;10166280;29;20052;-82
2022/04/17 11:24:54;;;;;;;3.28;1.63;;;;;;;23.80;11.76;98853.75;10153443;29;20055;-83
2022/04/17 11:30:15;;;;;;;4.25;1.73;;;;;;;23.29;12.12;98843.47;10165620;29;20055;-85
2022/04/17 11:35:39;;;;;;;3.13;1.80;;;;;;;22.41;13.35;98842.38;10165614;29;20064;-86
2022/04/17 11:41:07;;;;;;;3.75;1.65;;;;;;;21.88;13.54;98829.63;10165289;29;20055;-85
2022/04/17 11:46:28;;;;;;;2.03;1.05;;;;;;;21.97;13.29;98831.41;10179341;29;20112;-85
2022/04/17 11:51:49;;;;;;;2.70;1.15;;;;;;;21.71;13.43;98833.19;10151717;29;20044;-86
2022/04/17 11:57:10;;;;;;;2.05;0.98;;;;;;;21.28;13.95;98833.53;10151408;29;20052;-86
2022/04/17 12:02:32;;;;;;;4.10;1.25;;;;;;;20.76;13.99;98830.59;10151931;29;20131;-86
2022/04/17 12:07:57;;;;;;;4.03;1.23;;;;;;;20.34;14.65;98823.66;10151144;29;20059;-85
2022/04/17 12:13:20;;;;;;;3.30;1.52;;;;;;;18.44;15.70;98819.16;10138423;29;20048;-85
2022/04/17 12:18:41;;;;;;;2.15;1.52;;;;;;;17.78;16.68;98804.91;10151206;29;20048;-83
2022/04/17 12:24:02;;;;;;;2.78;1.48;;;;;;;17.11;17.17;98799.69;10177570;29;20505;-86
2022/04/17 12:29:23;;;;;;;2.97;1.60;;;;;;;17.10;17.83;98789.03;10163788;29;20495;-86
2022/04/17 12:34:45;;;;;;;2.30;1.27;;;;;;;17.72;17.61;98779.88;10150155;29;20044;-86
2022/04/17 12:40:18;;;;;;;3.65;1.50;;;;;;;17.42;17.36;98787.34;10138145;29;20055;-88
2022/04/17 12:45:50;;;;;;;4.85;1.40;;;;;;;17.37;17.84;98782.81;10149905;29;20391;-85
2022/04/17 12:51:10;;;;;;;3.33;1.40;;;;;;;17.51;17.60;98765.97;10162468;29;20410;-86
2022/04/17 12:56:31;;;;;;;3.75;1.52;;;;;;;17.87;17.92;98751.09;10149661;29;20051;-86
2022/04/17 13:01:52;;;;;;;2.40;1.20;;;;;;;17.97;17.76;98742.44;10149193;29;20439;-85
2022/04/17 13:07:16;;;;;;;3.85;1.50;;;;;;;17.65;17.80;98730.03;10162375;29;20099;-85
2022/04/17 13:12:44;;;;;;;3.28;1.10;;;;;;;17.67;17.98;98730.19;10162139;29;20040;-85
2022/04/17 13:18:05;;;;;;;2.25;0.98;;;;;;;17.42;18.03;98719.59;10161947;29;20052;-86
2022/04/17 13:23:26;;;;;;;2.72;0.88;;;;;;;17.06;18.15;98718.25;10161748;29;20391;-86
2022/04/17 13:28:50;;;;;;;2.03;0.90;;;;;;;17.31;18.26;98715.47;10161752;29;20040;-86
2022/04/17 13:34:10;;;;;;;2.88;0.90;;;;;;;17.55;18.06;98692.78;10160670;29;20498;-86
2022/04/17 13:39:31;;;;;;;2.60;1.08;;;;;;;17.71;18.03;98683.16;10147756;29;20502;-86
2022/04/17 13:44:51;;;;;;;3.72;1.10;;;;;;;17.67;17.90;98687.81;10147617;29;20040;-87
2022/04/17 13:50:12;;;;;;;5.25;0.98;;;;;;;17.20;18.17;98676.03;10147744;29;20044;-85
2022/04/17 13:55:35;;;;;;;4.50;0.80;;;;;;;17.19;18.52;98661.19;10173767;29;20048;-86
2022/04/17 14:00:56;;;;;;;2.65;1.17;;;;;;;16.76;18.45;98653.13;10160501;29;20138;-88
2022/04/17 14:06:19;;;;;;;2.78;0.80;;;;;;;16.24;19.12;98651.47;10160836;29;20079;-86
2022/04/17 14:11:39;;;;;;;2.30;1.10;;;;;;;16.12;19.50;98642.31;10147657;29;20047;-85
2022/04/17 14:17:00;;;;;;;3.15;1.17;;;;;;;16.08;19.98;98636.41;10160067;29;20075;-85
2022/04/17 14:22:24;;;;;;;3.97;2.33;;;;;;;16.53;19.77;98624.97;10147175;29;20048;-86
2022/04/17 14:27:45;;;;;;;2.63;1.20;;;;;;;16.65;19.38;98620.03;10160319;29;20471;-85
2022/04/17 14:33:06;;;;;;;2.00;1.02;;;;;;;16.35;19.65;98607.00;10174200;29;20525;-87
2022/04/17 14:38:27;;;;;;;4.50;1.83;;;;;;;16.76;19.75;98596.75;10147123;29;20083;-87
2022/04/17 14:43:48;;;;;;;3.25;1.13;;;;;;;17.16;19.73;98591.91;10159680;29;20100;-88
2022/04/17 14:49:09;;;;;;;3.28;1.10;;;;;;;17.17;19.33;98599.00;10154281;29;20498;-87
2022/04/17 14:54:31;;;;;;;2.63;1.00;;;;;;;17.09;19.65;98576.00;10154646;29;20079;-86
2022/04/17 14:59:51;;;;;;;2.33;1.10;;;;;;;17.09;19.87;98570.38;10167187;29;20075;-87
2022/04/17 15:05:13;;;;;;;3.88;1.08;;;;;;;17.53;19.64;98565.66;10166709;29;20055;-87
2022/04/17 15:10:33;;;;;;;2.60;0.88;;;;;;;17.63;19.71;98563.38;10140937;29;20107;-85
2022/04/17 15:15:54;;;;;;;2.45;0.93;;;;;;;17.48;19.71;98558.34;10180749;29;20104;-86
2022/04/17 15:21:15;;;;;;;1.40;0.73;;;;;;;17.58;19.99;98553.25;10166233;29;20071;-89
2022/04/17 15:26:36;;;;;;;1.52;0.68;;;;;;;17.24;20.17;98535.91;10166054;29;20107;-87
2022/04/17 15:31:56;;;;;;;1.58;0.52;;;;;;;17.15;20.11;98536.84;10153498;29;20067;-88
2022/04/17 15:37:17;;;;;;;2.72;1.30;;;;;;;16.71;20.44;98541.50;10179779;29;20063;-88
2022/04/17 15:42:39;;;;;;;4.32;2.03;;;;;;;16.41;20.50;98525.66;10152105;29;20081;-86
2022/04/17 15:48:08;;;;;;;2.00;0.70;;;;;;;16.01;21.06;98533.22;10165330;29;20412;-86
2022/04/17 15:53:29;;;;;;;3.40;0.98;;;;;;;15.47;21.61;98542.66;10153136;29;20056;-83
2022/04/17 15:59:05;;;;;;;2.60;0.57;;;;;;;15.07;22.01;98526.81;10109932;23;20499;-79
2022/04/17 16:04:39;;;;;;;2.05;0.98;;;;;;;14.78;22.37;98515.88;10161841;23;20124;-80
2022/04/17 16:10:12;;;;;;;2.85;0.98;;;;;;;14.74;23.98;98516.34;10208955;24;20092;-80
2022/04/17 16:15:42;;;;;;;1.83;0.68;;;;;;;15.03;23.09;98504.06;10188327;23;20060;-80
2022/04/17 16:21:13;;;;;;;2.13;0.60;;;;;;;15.11;23.58;98518.63;10223680;24;20056;-79
2022/04/17 16:26:44;;;;;;;3.53;0.82;;;;;;;14.85;23.47;98512.09;10285832;23;20124;-79
2022/04/17 16:32:23;;;;;;;3.42;1.30;;;;;;;14.57;24.02;98511.78;10805603;23;20049;-79
2022/04/17 16:37:57;;;;;;;2.03;0.90;;;;;;;14.24;24.33;98503.28;11176996;23;20100;-76
2022/04/17 16:43:19;;;;;;;2.60;1.00;;;;;;;14.17;24.69;98509.09;11602538;23;20770;-77
2022/04/17 17:06:25;;;;;;;2.05;0.90;;;;;;;13.97;26.15;98502.91;10564170;27;20431;-78
2022/04/17 17:18:02;;;;;;;1.63;0.73;;;;;;;13.51;26.46;98494.88;11664126;23;20103;-78
2022/04/17 17:23:23;;;;;;;2.53;0.68;;;;;;;13.24;26.14;98509.19;11080969;23;20032;-78
2022/04/17 17:28:44;;;;;;;2.13;0.80;;;;;;;13.09;26.34;98510.22;10019989;29;20054;-79
2022/04/17 17:34:05;;;;;;;2.95;0.70;;;;;;;12.98;26.85;98517.19;10018565;29;20129;-80
2022/04/17 17:39:28;;;;;;;2.70;1.08;;;;;;;12.90;27.17;98516.63;9999614;29;20061;-79
2022/04/17 17:51:05;;;;;;;2.35;1.05;;;;;;;12.71;27.12;98500.59;10587086;24;20070;-82
2022/04/17 17:56:26;;;;;;;4.45;0.85;;;;;;;12.57;27.31;98508.00;9956345;29;20042;-84
2022/04/17 18:01:48;;;;;;;3.30;1.95;;;;;;;12.45;27.53;98495.91;9944805;29;20035;-80
2022/04/17 18:07:09;;;;;;;4.32;2.50;;;;;;;12.32;27.86;98499.88;9957763;29;20078;-84
2022/04/17 18:18:11;;;;;;;3.90;1.25;;;;;;;12.14;27.85;98516.09;9948563;29;20118;-79
2022/04/17 18:23:32;;;;;;;2.38;1.17;;;;;;;12.02;28.12;98515.19;9942199;30;20058;-87
2022/04/17 18:28:53;;;;;;;2.22;1.05;;;;;;;11.90;28.36;98505.91;9918684;30;20047;-81
2022/04/17 18:46:37;;;;;;;3.05;1.63;;;;;;;11.62;29.40;98524.06;10215065;23;19908;-87
2022/04/17 18:51:58;;;;;;;4.35;1.80;;;;;;;11.53;29.40;98525.50;10228255;24;20065;-86
2022/04/17 19:09:37;;;;;;;4.25;2.30;;;;;;;11.22;29.84;98519.66;10155786;23;19912;-87
2022/04/17 19:14:58;;;;;;;4.15;2.00;;;;;;;11.08;30.33;98521.31;10068089;29;20029;-86
2022/04/17 19:20:20;;;;;;;4.10;1.90;;;;;;;11.01;30.53;98511.75;10080756;29;20044;-86
2022/04/17 19:25:42;;;;;;;4.20;1.80;;;;;;;10.94;31.01;98512.59;10080985;29;20097;-86
2022/04/17 19:36:43;;;;;;;3.47;1.98;;;;;;;10.72;31.38;98491.31;10086818;29;20053;-86
2022/04/17 19:42:06;;;;;;;4.63;1.80;;;;;;;10.58;31.59;98496.50;10081325;29;20109;-87
2022/04/17 19:47:28;;;;;;;3.35;1.70;;;;;;;10.49;31.68;98491.56;10068346;29;20034;-87
2022/04/17 19:52:50;;;;;;;3.53;1.77;;;;;;;10.48;32.47;98476.88;10068002;29;20054;-85
2022/04/17 19:58:11;;;;;;;4.43;2.63;;;;;;;10.48;32.30;98474.09;10056293;29;20276;-77
2022/04/17 20:03:32;;;;;;;4.93;2.92;;;;;;;10.40;32.41;98470.66;10030765;29;20552;-78
2022/04/17 20:08:53;;;;;;;5.80;3.85;;;;;;;10.34;32.81;98467.41;10042116;29;20066;-78
2022/04/17 20:14:16;;;;;;;5.70;2.70;;;;;;;10.30;33.04;98467.06;10042317;29;20056;-78
2022/04/17 20:19:39;;;;;;;5.20;2.67;;;;;;;10.25;32.94;98463.22;10055671;29;20050;-78
2022/04/17 20:25:01;;;;;;;5.40;2.45;;;;;;;10.22;33.05;98464.34;10067892;29;20057;-78
2022/04/17 20:30:21;;;;;;;3.95;2.28;;;;;;;10.23;33.60;98470.66;10069936;29;20070;-78
2022/04/17 20:35:44;;;;;;;5.43;2.20;;;;;;;10.13;33.41;98467.03;10057528;29;20072;-77
2022/04/17 20:41:05;;;;;;;5.68;2.40;;;;;;;10.11;33.79;98458.50;10063034;29;20452;-79
2022/04/17 20:52:06;;;;;;;3.97;2.20;;;;;;;10.02;34.39;98463.44;10073643;29;20118;-80
2022/04/17 20:57:28;;;;;;;6.25;2.45;;;;;;;9.99;34.46;98453.44;10049259;29;20200;-79
2022/04/17 21:02:51;;;;;;;3.90;2.28;;;;;;;9.92;34.49;98448.66;10050225;29;20409;-79
2022/04/17 21:08:12;;;;;;;4.57;2.20;;;;;;;9.87;34.47;98449.66;10064049;29;20068;-78
2022/04/17 21:13:33;;;;;;;6.00;2.40;;;;;;;9.86;34.49;98448.19;10039922;29;20066;-78
2022/04/17 21:18:54;;;;;;;6.78;2.67;;;;;;;9.89;34.88;98444.25;10039683;29;20453;-77
2022/04/17 21:24:14;;;;;;;6.80;2.90;;;;;;;9.89;35.10;98437.94;10053672;29;20081;-78
2022/04/17 21:29:35;;;;;;;5.78;3.00;;;;;;;9.83;34.92;98438.16;10039309;29;20050;-78
2022/04/17 21:34:56;;;;;;;8.02;2.70;;;;;;;9.76;35.13;98433.44;10025933;29;20057;-78
2022/04/17 21:40:19;;;;;;;4.72;2.75;;;;;;;9.69;35.46;98425.88;10043010;29;20045;-77
2022/04/17 21:45:40;;;;;;;5.30;2.95;;;;;;;9.66;35.73;98424.97;10045990;29;20048;-78
2022/04/17 21:51:02;;;;;;;9.27;3.10;;;;;;;9.65;35.68;98420.72;10045478;29;20061;-78
2022/04/17 21:56:23;;;;;;;5.57;2.65;;;;;;;9.59;35.96;98413.91;10044895;29;20082;-78
2022/04/17 22:07:23;;;;;;;6.10;3.00;;;;;;;9.57;35.83;98400.53;10050037;29;20057;-78
2022/04/17 22:12:44;;;;;;;4.68;2.92;;;;;;;9.45;36.01;98399.53;10044579;29;20050;-78
2022/04/17 22:18:05;;;;;;;4.38;2.20;;;;;;;9.38;36.18;98395.53;10044190;29;20057;-78
2022/04/17 22:23:26;;;;;;;4.90;2.50;;;;;;;9.34;36.50;98391.66;10044528;29;20416;-77
2022/04/17 22:28:47;;;;;;;4.43;2.63;;;;;;;9.28;36.48;98393.94;10070933;29;20049;-78
2022/04/17 22:34:08;;;;;;;4.63;2.70;;;;;;;9.20;36.68;98388.44;10030917;29;20105;-78
2022/04/17 22:39:29;;;;;;;6.43;3.05;;;;;;;9.13;36.67;98389.97;10043321;29;20053;-78
2022/04/17 22:44:50;;;;;;;6.32;2.72;;;;;;;9.02;36.88;98381.34;10055932;29;20073;-78
2022/04/17 22:50:10;;;;;;;5.70;2.92;;;;;;;8.93;37.21;98387.53;10054812;29;20045;-78
2022/04/17 22:55:31;;;;;;;7.50;3.28;;;;;;;8.80;37.53;98375.41;10042278;29;20049;-78
2022/04/17 23:01:10;;;;;;;6.38;2.95;;;;;;;8.77;37.45;98375.78;10054015;29;20053;-77
2022/04/17 23:06:31;;;;;;;6.18;3.70;;;;;;;8.64;37.83;98368.44;10055670;29;20402;-77
2022/04/17 23:11:52;;;;;;;7.30;3.78;;;;;;;8.56;38.43;98368.50;10041423;29;20052;-78
2022/04/17 23:17:12;;;;;;;6.50;3.90;;;;;;;8.48;38.16;98362.25;10053742;29;20085;-78
2022/04/17 23:22:33;;;;;;;6.55;3.67;;;;;;;8.42;38.37;98355.44;10040189;29;20051;-77
2022/04/17 23:27:54;;;;;;;7.18;3.38;;;;;;;8.32;38.17;98353.25;10052925;29;20049;-77
2022/04/17 23:33:17;;;;;;;4.80;2.95;;;;;;;8.22;38.48;98335.69;10052032;29;20057;-78
2022/04/17 23:38:41;;;;;;;5.40;2.80;;;;;;;8.20;38.86;98341.06;10039838;29;20124;-78
2022/04/17 23:44:02;;;;;;;5.30;2.92;;;;;;;8.12;38.96;98339.63;10039258;29;20053;-77
2022/04/17 23:49:22;;;;;;;4.70;2.65;;;;;;;8.09;38.93;98329.63;10037641;29;20068;-77
2022/04/17 23:54:43;;;;;;;4.82;2.75;;;;;;;8.07;39.19;98329.44;10049907;29;20045;-78
